createdAt,value
2022-08-07T00:00:52.868Z,25.08
2022-08-07T00:03:25.710Z,24.78
2022-08-07T00:05:56.588Z,24.87
2022-08-07T00:08:26.636Z,24.50
2022-08-07T00:10:57.526Z,24.29
2022-08-07T00:13:27.073Z,23.97
2022-08-07T00:15:55.820Z,23.96
2022-08-07T00:18:26.761Z,24.15
2022-08-07T00:20:57.569Z,24.42
2022-08-07T00:23:32.447Z,24.46
2022-08-07T00:26:10.871Z,24.64
2022-08-07T00:28:56.515Z,24.68
2022-08-07T00:31:37.776Z,24.54
2022-08-07T00:34:09.089Z,24.64
2022-08-07T00:36:38.694Z,24.33
2022-08-07T00:39:16.494Z,24.18
2022-08-07T00:41:53.527Z,23.85
2022-08-07T00:44:22.666Z,23.77
2022-08-07T00:46:55.573Z,23.84
2022-08-07T00:49:24.853Z,23.64
2022-08-07T00:52:12.690Z,23.49
2022-08-07T00:54:42.750Z,23.82
2022-08-07T00:57:12.073Z,24.03
2022-08-07T00:59:40.725Z,24.03
2022-08-07T01:02:27.861Z,24.12
2022-08-07T01:04:56.839Z,23.95
2022-08-07T01:07:28.447Z,23.92
2022-08-07T01:10:06.513Z,23.54
2022-08-07T01:12:43.933Z,23.10
2022-08-07T01:16:00.986Z,23.04
2022-08-07T01:18:16.790Z,22.82
2022-08-07T01:20:57.204Z,22.81
2022-08-07T01:23:36.739Z,22.91
2022-08-07T01:26:11.846Z,22.80
2022-08-07T01:28:46.343Z,22.56
2022-08-07T01:31:21.991Z,22.34
2022-08-07T01:33:57.395Z,22.69
2022-08-07T01:36:33.818Z,22.68
2022-08-07T01:39:17.244Z,23.07
2022-08-07T01:42:36.794Z,22.69
2022-08-07T01:44:49.891Z,22.89
2022-08-07T01:48:29.747Z,23.05
2022-08-07T01:50:08.567Z,23.16
2022-08-07T01:52:38.105Z,22.68
2022-08-07T01:55:22.246Z,22.87
2022-08-07T01:58:05.616Z,22.97
2022-08-07T02:00:38.789Z,22.94
2022-08-07T02:03:26.493Z,23.21
2022-08-07T02:06:09.041Z,23.83
2022-08-07T02:08:56.867Z,24.13
2022-08-07T02:11:30.917Z,24.49
2022-08-07T02:14:40.253Z,24.73
2022-08-07T02:17:09.690Z,24.56
2022-08-07T02:20:04.403Z,25.02
2022-08-07T02:22:30.533Z,24.87
2022-08-07T02:24:59.557Z,25.09
2022-08-07T02:27:34.232Z,25.33
2022-08-07T02:30:08.529Z,25.77
2022-08-07T02:32:39.411Z,26.88
2022-08-07T02:36:30.568Z,26.81
2022-08-07T02:38:17.435Z,27.53
2022-08-07T02:40:55.597Z,27.59
2022-08-07T02:43:27.756Z,28.57
2022-08-07T02:46:00.460Z,28.48
2022-08-07T02:48:32.719Z,28.80
2022-08-07T02:51:07.322Z,29.18
2022-08-07T02:53:57.292Z,28.33
2022-08-07T02:56:27.989Z,28.38
2022-08-07T02:59:00.034Z,28.20
2022-08-07T03:01:35.799Z,27.90
2022-08-07T03:04:12.991Z,28.28
2022-08-07T03:06:44.667Z,28.66
2022-08-07T03:09:41.783Z,27.61
2022-08-07T03:12:05.358Z,28.10
2022-08-07T03:14:38.625Z,28.33
2022-08-07T03:17:10.399Z,28.15
2022-08-07T03:19:39.128Z,28.77
2022-08-07T03:22:18.821Z,28.55
2022-08-07T03:24:51.159Z,28.11
2022-08-07T03:27:30.240Z,28.84
2022-08-07T03:30:01.738Z,28.57
2022-08-07T03:32:40.844Z,28.05
2022-08-07T03:35:26.078Z,27.73
2022-08-07T03:37:57.293Z,26.88
2022-08-07T03:40:36.010Z,26.62
2022-08-07T03:43:14.420Z,26.62
2022-08-07T03:45:48.959Z,26.36
2022-08-07T03:48:23.174Z,26.56
2022-08-07T03:50:57.798Z,26.84
2022-08-07T03:54:01.837Z,27.22
2022-08-07T03:56:33.443Z,27.13
2022-08-07T03:59:13.291Z,26.92
2022-08-07T04:01:48.353Z,27.11
2022-08-07T04:04:21.963Z,27.14
2022-08-07T04:07:00.131Z,27.45
2022-08-07T04:09:44.822Z,27.73
2022-08-07T04:12:26.912Z,27.25
2022-08-07T04:14:59.419Z,27.63
2022-08-07T04:18:58.420Z,27.90
2022-08-07T04:20:23.561Z,27.65
2022-08-07T04:23:01.900Z,28.02
2022-08-07T04:25:39.606Z,28.50
2022-08-07T04:28:13.460Z,28.72
2022-08-07T04:30:55.434Z,28.18
2022-08-07T04:33:32.492Z,28.37
2022-08-07T04:36:06.559Z,28.60
2022-08-07T04:38:36.228Z,28.81
2022-08-07T04:41:05.393Z,29.12
2022-08-07T04:44:12.889Z,29.40
2022-08-07T04:47:04.008Z,29.89
2022-08-07T04:49:40.029Z,28.87
2022-08-07T04:52:15.802Z,28.84
2022-08-07T04:54:53.755Z,29.00
2022-08-07T04:58:10.817Z,28.36
2022-08-07T05:00:30.636Z,29.33
2022-08-07T05:03:17.241Z,28.77
2022-08-07T05:06:02.109Z,29.21
2022-08-07T05:09:01.154Z,29.48
2022-08-07T05:11:56.836Z,29.64
2022-08-07T05:14:56.442Z,29.85
2022-08-07T05:17:51.494Z,29.42
2022-08-07T05:20:10.126Z,29.73
2022-08-07T05:22:43.387Z,30.13
2022-08-07T05:25:25.865Z,30.07
2022-08-07T05:28:20.728Z,30.24
2022-08-07T05:30:53.687Z,30.84
2022-08-07T05:33:23.177Z,30.81
2022-08-07T05:35:53.141Z,30.07
2022-08-07T05:39:01.045Z,30.05
2022-08-07T05:41:18.477Z,29.64
2022-08-07T05:44:11.960Z,30.08
2022-08-07T05:46:44.870Z,30.32
2022-08-07T05:49:14.480Z,30.32
2022-08-07T05:51:47.476Z,30.66
2022-08-07T05:54:30.891Z,30.69
2022-08-07T05:57:12.111Z,30.81
2022-08-07T05:59:56.132Z,30.36
2022-08-07T06:02:30.713Z,30.46
2022-08-07T06:05:04.621Z,30.60
2022-08-07T06:08:14.682Z,30.66
2022-08-07T06:10:27.286Z,31.88
2022-08-07T06:12:55.937Z,32.86
2022-08-07T06:15:39.432Z,31.56
2022-08-07T06:18:13.983Z,31.55
2022-08-07T06:20:50.421Z,32.88
2022-08-07T06:24:36.799Z,33.89
2022-08-07T06:26:27.723Z,34.34
2022-08-07T06:29:01.152Z,33.12
2022-08-07T06:31:46.692Z,32.85
2022-08-07T06:34:20.853Z,32.55
2022-08-07T06:36:51.985Z,32.69
2022-08-07T06:40:13.719Z,34.64
2022-08-07T06:42:20.432Z,34.58
2022-08-07T06:45:24.807Z,33.01
2022-08-07T06:47:59.281Z,33.79
2022-08-07T06:50:48.963Z,33.88
2022-08-07T06:54:11.758Z,32.38
2022-08-07T06:56:14.731Z,32.45
2022-08-07T07:00:14.655Z,32.85
2022-08-07T07:01:43.756Z,33.48
2022-08-07T07:04:28.611Z,33.71
2022-08-07T07:07:02.558Z,34.94
2022-08-07T07:09:48.527Z,34.02
2022-08-07T07:12:29.169Z,34.08
2022-08-07T07:15:08.585Z,33.58
2022-08-07T07:17:56.084Z,33.72
2022-08-07T07:20:28.971Z,33.49
2022-08-07T07:24:06.609Z,33.92
2022-08-07T07:26:33.290Z,33.59
2022-08-07T07:28:48.636Z,33.22
2022-08-07T07:31:39.860Z,32.97
2022-08-07T07:34:15.506Z,32.98
2022-08-07T07:36:47.861Z,33.28
2022-08-07T07:39:22.862Z,33.09
2022-08-07T07:42:13.016Z,33.18
2022-08-07T07:44:45.064Z,33.42
2022-08-07T07:47:23.840Z,32.85
2022-08-07T07:50:34.297Z,33.51
2022-08-07T07:52:43.364Z,32.72
2022-08-07T07:55:11.850Z,33.00
2022-08-07T07:57:51.741Z,33.44
2022-08-07T08:00:29.655Z,33.68
2022-08-07T08:03:06.803Z,33.66
2022-08-07T08:05:50.807Z,34.52
2022-08-07T08:08:35.636Z,34.68
2022-08-07T08:11:16.182Z,34.93
2022-08-07T08:13:53.093Z,35.32
2022-08-07T08:16:25.972Z,34.95
2022-08-07T08:19:09.915Z,35.19
2022-08-07T08:22:08.111Z,34.94
2022-08-07T08:25:04.534Z,35.25
2022-08-07T08:27:57.564Z,35.57
2022-08-07T08:30:34.392Z,36.24
2022-08-07T08:33:10.352Z,36.99
2022-08-07T08:35:50.606Z,36.39
2022-08-07T08:38:21.923Z,35.99
2022-08-07T08:41:02.953Z,36.59
2022-08-07T08:43:42.064Z,35.38
2022-08-07T08:46:14.291Z,35.63
2022-08-07T08:48:50.985Z,35.79
2022-08-07T08:51:26.163Z,35.02
2022-08-07T08:54:18.198Z,35.21
2022-08-07T08:56:48.481Z,35.08
2022-08-07T08:59:21.473Z,36.19
2022-08-07T09:01:59.472Z,36.29
2022-08-07T09:04:38.121Z,36.73
2022-08-07T09:07:12.896Z,37.55
2022-08-07T09:09:48.303Z,38.35
2022-08-07T09:12:35.542Z,37.80
2022-08-07T09:16:20.502Z,37.08
2022-08-07T09:18:22.495Z,36.86
2022-08-07T09:21:00.933Z,36.84
2022-08-07T09:24:31.055Z,37.40
2022-08-07T09:26:31.781Z,37.06
2022-08-07T09:30:01.099Z,36.46
2022-08-07T09:31:58.068Z,36.15
2022-08-07T09:34:29.016Z,36.03
2022-08-07T09:37:02.154Z,36.28
2022-08-07T09:39:54.304Z,36.75
2022-08-07T09:42:35.488Z,35.41
2022-08-07T09:47:51.831Z,34.87
2022-08-07T09:48:11.880Z,35.04
2022-08-07T09:50:52.620Z,35.31
2022-08-07T09:53:22.653Z,35.83
2022-08-07T09:56:03.326Z,35.74
2022-08-07T09:58:48.790Z,35.80
2022-08-07T10:01:50.379Z,35.61
2022-08-07T10:04:32.854Z,35.54
2022-08-07T10:07:11.558Z,35.40
2022-08-07T10:10:02.888Z,35.22
2022-08-07T10:12:43.445Z,35.71
2022-08-07T10:15:37.621Z,35.15
2022-08-07T10:18:21.943Z,34.91
2022-08-07T10:21:03.781Z,34.53
2022-08-07T10:24:06.551Z,34.97
2022-08-07T10:26:51.814Z,34.83
2022-08-07T10:29:45.687Z,35.13
2022-08-07T10:32:52.803Z,34.89
2022-08-07T10:35:56.446Z,34.73
2022-08-07T10:38:42.259Z,35.16
2022-08-07T10:41:13.462Z,35.18
2022-08-07T10:44:07.950Z,34.69
2022-08-07T10:46:40.840Z,35.01
2022-08-07T10:49:14.591Z,34.78
2022-08-07T10:52:02.089Z,33.58
2022-08-07T10:55:00.901Z,34.95
2022-08-07T10:57:35.264Z,34.27
2022-08-07T11:00:08.897Z,32.96
2022-08-07T11:02:49.412Z,33.27
2022-08-07T11:05:44.852Z,33.66
2022-08-07T11:08:21.313Z,33.18
2022-08-07T11:11:00.576Z,34.51
2022-08-07T11:14:41.883Z,33.92
2022-08-07T11:16:29.839Z,33.88
2022-08-07T11:19:06.815Z,34.48
2022-08-07T11:21:42.789Z,33.72
2022-08-07T11:24:16.546Z,33.38
2022-08-07T11:26:50.493Z,33.62
2022-08-07T11:29:41.189Z,33.25
2022-08-07T11:32:13.700Z,34.10
2022-08-07T11:34:57.018Z,33.80
2022-08-07T11:37:38.516Z,33.20
2022-08-07T11:40:28.394Z,32.93
2022-08-07T11:43:00.361Z,33.88
2022-08-07T11:45:35.919Z,34.09
2022-08-07T11:48:29.806Z,33.50
2022-08-07T11:51:41.699Z,33.86
2022-08-07T11:54:10.945Z,33.97
2022-08-07T11:56:52.254Z,33.04
2022-08-07T12:00:10.896Z,30.53
2022-08-07T12:02:31.611Z,29.11
2022-08-07T12:05:15.118Z,28.36
2022-08-07T12:07:53.713Z,29.50
2022-08-07T12:10:41.970Z,29.62
2022-08-07T12:13:17.141Z,30.47
2022-08-07T12:16:06.304Z,30.15
2022-08-07T12:18:38.368Z,30.53
2022-08-07T12:21:55.668Z,31.32
2022-08-07T12:24:37.316Z,30.82
2022-08-07T12:27:13.304Z,27.92
2022-08-07T12:29:51.499Z,27.63
2022-08-07T12:32:22.508Z,27.21
2022-08-07T12:34:55.611Z,26.43
2022-08-07T12:37:28.322Z,26.13
2022-08-07T12:40:44.922Z,25.36
2022-08-07T12:43:09.388Z,26.22
2022-08-07T12:45:44.936Z,26.64
2022-08-07T12:48:28.229Z,26.30
2022-08-07T12:51:17.309Z,26.10
2022-08-07T12:54:03.117Z,26.28
2022-08-07T12:56:38.182Z,26.31
2022-08-07T12:59:09.764Z,26.20
2022-08-07T13:01:57.036Z,26.55
2022-08-07T13:04:49.119Z,26.11
2022-08-07T13:08:13.987Z,25.76
2022-08-07T13:10:51.676Z,26.04
2022-08-07T13:13:48.391Z,26.47
2022-08-07T13:16:26.266Z,26.63
2022-08-07T13:18:58.613Z,26.64
2022-08-07T13:21:50.553Z,25.83
2022-08-07T13:24:25.863Z,25.84
2022-08-07T13:27:02.828Z,25.86
2022-08-07T13:29:37.836Z,25.75
2022-08-07T13:32:32.611Z,25.59
2022-08-07T13:35:08.718Z,25.66
2022-08-07T13:37:43.224Z,25.83
2022-08-07T13:40:35.301Z,26.09
2022-08-07T13:43:13.222Z,25.58
2022-08-07T13:46:11.755Z,25.37
2022-08-07T13:48:35.042Z,25.55
2022-08-07T13:51:20.507Z,25.37
2022-08-07T13:54:00.110Z,25.79
2022-08-07T13:56:35.565Z,25.26
2022-08-07T13:59:12.318Z,26.02
2022-08-07T14:01:51.563Z,25.53
2022-08-07T14:04:29.704Z,26.32
2022-08-07T14:07:09.234Z,26.19
2022-08-07T14:10:02.304Z,26.70
2022-08-07T14:12:36.153Z,26.70
2022-08-07T14:15:18.638Z,26.83
2022-08-07T14:18:24.163Z,27.30
2022-08-07T14:20:49.206Z,27.74
2022-08-07T14:23:31.481Z,27.57
2022-08-07T14:26:29.687Z,27.79
2022-08-07T14:29:08.615Z,27.54
2022-08-07T14:31:56.091Z,27.94
2022-08-07T14:34:30.044Z,28.24
2022-08-07T14:37:02.957Z,28.82
2022-08-07T14:42:24.563Z,29.58
2022-08-07T14:44:54.190Z,29.85
2022-08-07T14:47:33.811Z,29.19
2022-08-07T14:50:06.576Z,28.44
2022-08-07T14:52:41.483Z,28.47
2022-08-07T14:55:12.133Z,28.81
2022-08-07T14:57:58.084Z,27.84
2022-08-07T15:00:30.318Z,27.41
2022-08-07T15:03:00.298Z,27.19
2022-08-07T15:05:54.737Z,26.90
2022-08-07T15:08:49.751Z,26.97
2022-08-07T15:11:50.923Z,26.35
2022-08-07T15:14:13.254Z,26.22
2022-08-07T15:16:54.789Z,26.11
2022-08-07T15:25:18.102Z,26.67
2022-08-07T15:28:07.893Z,26.52
2022-08-07T15:31:04.458Z,26.68
2022-08-07T15:33:34.029Z,27.09
2022-08-07T15:36:05.724Z,26.56
2022-08-07T15:38:58.567Z,26.61
2022-08-07T15:42:44.542Z,26.37
2022-08-07T15:44:18.673Z,26.74
2022-08-07T15:46:52.986Z,27.50
2022-08-07T15:52:20.896Z,28.35
2022-08-07T15:54:51.623Z,28.62
2022-08-07T15:57:27.794Z,28.16
2022-08-07T16:00:09.650Z,27.14
2022-08-07T16:02:58.900Z,27.58
2022-08-07T16:05:31.202Z,27.91
2022-08-07T16:08:32.272Z,28.39
2022-08-07T16:11:03.152Z,28.18
2022-08-07T16:13:59.158Z,27.25
2022-08-07T16:16:47.965Z,26.15
2022-08-07T16:19:43.051Z,27.13
2022-08-07T16:22:54.352Z,25.99
2022-08-07T16:25:54.982Z,26.63
2022-08-07T16:30:06.722Z,27.13
2022-08-07T16:31:50.304Z,26.78
2022-08-07T16:34:24.574Z,26.50
2022-08-07T16:38:06.586Z,25.96
2022-08-07T16:40:12.896Z,25.73
2022-08-07T16:43:05.148Z,26.02
2022-08-07T16:46:34.669Z,26.67
2022-08-07T16:50:26.818Z,26.49
2022-08-07T16:52:50.603Z,26.59
2022-08-07T16:54:57.693Z,25.92
2022-08-07T16:58:01.911Z,26.00
2022-08-07T17:00:29.429Z,26.28
2022-08-07T17:03:17.086Z,25.53
2022-08-07T17:06:01.678Z,25.74
2022-08-07T17:09:09.403Z,25.63
2022-08-07T17:12:03.864Z,25.67
2022-08-07T17:14:28.200Z,25.61
2022-08-07T17:16:59.769Z,25.72
2022-08-07T17:20:02.252Z,25.66
2022-08-07T17:22:36.635Z,25.76
2022-08-07T17:25:13.162Z,25.56
2022-08-07T17:27:51.267Z,25.76
2022-08-07T17:30:26.608Z,25.76
2022-08-07T17:34:10.256Z,25.61
2022-08-07T17:36:02.905Z,25.54
2022-08-07T17:38:35.235Z,25.11
2022-08-07T17:42:00.579Z,24.94
2022-08-07T17:44:41.679Z,24.75
2022-08-07T17:47:05.557Z,24.52
2022-08-07T17:49:45.088Z,25.02
2022-08-07T17:52:21.004Z,25.33
2022-08-07T17:55:09.101Z,25.53
2022-08-07T17:57:58.923Z,25.32
2022-08-07T18:00:34.442Z,25.09
2022-08-07T18:03:25.668Z,24.89
2022-08-07T18:06:38.386Z,24.75
2022-08-07T18:09:10.879Z,24.70
2022-08-07T18:12:08.289Z,24.76
2022-08-07T18:14:44.933Z,24.91
2022-08-07T18:18:39.774Z,24.84
2022-08-07T18:21:11.605Z,24.96
2022-08-07T18:23:42.746Z,24.79
2022-08-07T18:26:15.273Z,24.80
2022-08-07T18:28:58.213Z,24.74
2022-08-07T18:31:38.931Z,24.77
2022-08-07T18:34:37.036Z,24.91
2022-08-07T18:38:57.834Z,25.01
2022-08-07T18:40:18.638Z,25.09
2022-08-07T18:43:10.865Z,24.93
2022-08-07T18:46:24.889Z,24.80
2022-08-07T18:50:30.924Z,24.88
2022-08-07T18:52:34.343Z,25.14
2022-08-07T18:54:31.197Z,24.79
2022-08-07T18:57:29.310Z,24.87
2022-08-07T19:00:04.452Z,24.75
2022-08-07T19:02:56.499Z,24.92
2022-08-07T19:06:02.578Z,24.76
2022-08-07T19:08:24.483Z,24.70
2022-08-07T19:10:55.540Z,24.84
2022-08-07T19:13:28.179Z,25.08
2022-08-07T19:16:05.428Z,25.20
2022-08-07T19:18:51.240Z,25.50
2022-08-07T19:21:44.973Z,25.46
2022-08-07T19:24:31.022Z,25.33
2022-08-07T19:29:02.951Z,25.20
2022-08-07T19:31:05.331Z,24.90
2022-08-07T19:32:46.152Z,24.23
2022-08-07T19:35:18.325Z,23.88
2022-08-07T19:37:56.462Z,24.38
2022-08-07T19:40:31.739Z,24.70
2022-08-07T19:43:02.770Z,24.95
2022-08-07T19:46:06.053Z,25.05
2022-08-07T19:48:24.703Z,25.33
2022-08-07T19:50:54.538Z,25.11
2022-08-07T19:54:29.982Z,25.17
2022-08-07T19:57:56.826Z,25.15
2022-08-07T19:59:13.803Z,25.44
2022-08-07T20:01:57.357Z,25.48
2022-08-07T20:04:30.926Z,25.25
2022-08-07T20:07:00.123Z,25.23
2022-08-07T20:10:33.819Z,25.07
2022-08-07T20:12:32.245Z,25.18
2022-08-07T20:15:04.929Z,24.95
2022-08-07T20:17:44.700Z,24.71
2022-08-07T20:20:30.911Z,24.68
2022-08-07T20:23:23.247Z,24.79
2022-08-07T20:25:57.421Z,24.45
2022-08-07T20:28:29.985Z,24.49
2022-08-07T20:30:58.850Z,24.51
2022-08-07T20:33:36.637Z,24.32
2022-08-07T20:36:08.066Z,23.83
2022-08-07T20:38:59.386Z,23.69
2022-08-07T20:41:28.949Z,24.08
2022-08-07T20:44:12.678Z,23.94
2022-08-07T20:46:44.497Z,24.26
2022-08-07T20:49:57.966Z,24.27
2022-08-07T20:52:17.458Z,24.18
2022-08-07T20:54:53.892Z,24.44
2022-08-07T20:57:25.048Z,24.53
2022-08-07T21:00:06.832Z,24.50
2022-08-07T21:02:57.812Z,24.66
2022-08-07T21:05:52.577Z,24.49
2022-08-07T21:08:19.870Z,24.48
2022-08-07T21:11:01.625Z,24.34
2022-08-07T21:13:57.936Z,24.20
2022-08-07T21:16:25.564Z,24.13
2022-08-07T21:18:58.882Z,24.23
2022-08-07T21:21:33.279Z,24.30
2022-08-07T21:24:25.691Z,24.27
2022-08-07T21:26:59.410Z,24.03
2022-08-07T21:29:33.739Z,23.94
2022-08-07T21:32:46.701Z,23.77
2022-08-07T21:35:00.495Z,23.82
2022-08-07T21:37:57.132Z,24.08
2022-08-07T21:40:26.120Z,24.12
2022-08-07T21:42:57.213Z,24.22
2022-08-07T21:46:09.549Z,24.14
2022-08-07T21:48:29.137Z,23.94
2022-08-07T21:51:06.581Z,24.10
2022-08-07T21:53:37.037Z,24.18
2022-08-07T21:56:36.632Z,24.13
2022-08-07T21:59:09.539Z,23.98
2022-08-07T22:02:10.768Z,23.94
2022-08-07T22:04:33.231Z,23.84
2022-08-07T22:07:03.140Z,23.63
2022-08-07T22:09:34.829Z,23.16
2022-08-07T22:12:24.535Z,23.29
2022-08-07T22:15:00.062Z,23.43
2022-08-07T22:17:46.930Z,23.29
2022-08-07T22:20:23.040Z,23.36
2022-08-07T22:22:57.299Z,23.31
2022-08-07T22:25:28.190Z,22.42
2022-08-07T22:28:30.933Z,22.26
2022-08-07T22:30:59.880Z,22.51
2022-08-07T22:33:56.728Z,23.14
2022-08-07T22:36:36.286Z,23.56
2022-08-07T22:39:10.344Z,23.51
2022-08-07T22:42:04.024Z,23.38
2022-08-07T22:44:33.530Z,23.49
2022-08-07T22:47:08.915Z,23.21
2022-08-07T22:49:54.381Z,23.26
2022-08-07T22:52:43.352Z,23.28
2022-08-07T22:55:30.134Z,23.75
2022-08-07T22:58:03.874Z,23.35
2022-08-07T23:00:35.993Z,23.16
2022-08-07T23:03:28.559Z,23.17
2022-08-07T23:06:16.837Z,23.47
2022-08-07T23:08:58.537Z,23.56
2022-08-07T23:11:59.051Z,23.51
2022-08-07T23:14:34.847Z,23.50
2022-08-07T23:17:20.910Z,23.48
2022-08-07T23:20:40.296Z,23.42
2022-08-07T23:24:05.824Z,23.39
2022-08-07T23:26:23.504Z,23.25
2022-08-07T23:28:58.805Z,23.16
2022-08-07T23:32:49.368Z,23.04
2022-08-07T23:34:39.557Z,23.18
2022-08-07T23:37:20.330Z,23.24
2022-08-07T23:40:01.491Z,23.27
2022-08-07T23:42:44.189Z,23.28
2022-08-07T23:45:33.121Z,23.16
2022-08-07T23:48:18.608Z,23.13
2022-08-07T23:50:48.100Z,23.17
2022-08-07T23:53:51.012Z,23.07
2022-08-07T23:56:20.762Z,22.99
2022-08-07T23:58:56.296Z,22.83
